Time;durP1;ratioP1;P1;durP2;ratioP2;P2;SDS_P1;SDS_P2;PMS_P1;PMS_P2;Temp;Humidity;BMP_temperature;BMP_pressure;BME280_temperature;BME280_humidity;BME280_pressure;Samples;Min_cycle;Max_cycle;Signal;HPM_P1;HPM_P2
2020/12/08 00:00:19;;;;;;;93.73;45.23;;;3.10;99.90;;;;;;4400362;32;20278;-66
2020/12/08 00:02:47;;;;;;;97.07;47.30;;;3.20;99.90;;;;;;4398067;32;20196;-66
2020/12/08 00:05:15;;;;;;;104.00;48.83;;;3.10;99.90;;;;;;4402639;32;20964;-66
2020/12/08 00:07:41;;;;;;;89.00;45.40;;;3.20;99.90;;;;;;4390083;32;20488;-65
2020/12/08 00:10:09;;;;;;;88.43;44.97;;;3.10;99.90;;;;;;4390684;32;20279;-66
2020/12/08 00:12:35;;;;;;;92.10;46.47;;;3.20;99.90;;;;;;4402494;32;20160;-65
2020/12/08 00:15:01;;;;;;;94.67;47.83;;;3.10;99.90;;;;;;4402687;32;20195;-65
2020/12/08 00:17:28;;;;;;;96.47;46.57;;;3.10;99.90;;;;;;4401362;32;20532;-65
2020/12/08 00:19:57;;;;;;;90.87;44.73;;;3.10;99.90;;;;;;4394231;32;20178;-65
2020/12/08 00:22:24;;;;;;;93.57;44.83;;;3.20;99.90;;;;;;4404413;32;20156;-65
2020/12/08 00:24:50;;;;;;;87.50;43.40;;;3.10;99.90;;;;;;4400160;32;20160;-65
2020/12/08 00:27:21;;;;;;;89.10;44.27;;;3.10;99.90;;;;;;4398923;32;20187;-65
2020/12/08 00:29:48;;;;;;;90.30;44.83;;;3.10;99.90;;;;;;4392709;32;20155;-65
2020/12/08 00:32:14;;;;;;;83.73;41.80;;;3.20;99.90;;;;;;4403690;32;20226;-65
2020/12/08 00:34:40;;;;;;;94.20;46.20;;;3.10;99.90;;;;;;4394341;32;20184;-65
2020/12/08 00:37:07;;;;;;;79.17;41.70;;;3.10;99.90;;;;;;4397342;32;20190;-65
2020/12/08 00:39:34;;;;;;;86.07;40.97;;;3.20;99.90;;;;;;4397197;32;21066;-66
2020/12/08 00:42:01;;;;;;;84.00;40.20;;;3.00;99.90;;;;;;4397595;32;20180;-65
2020/12/08 00:44:29;;;;;;;91.57;44.03;;;3.00;99.90;;;;;;4399432;32;20227;-66
2020/12/08 00:46:55;;;;;;;94.00;42.57;;;3.00;99.90;;;;;;4395217;32;20183;-65
2020/12/08 00:49:22;;;;;;;92.50;41.90;;;3.00;99.90;;;;;;4400758;32;20604;-66
2020/12/08 00:51:55;;;;;;;92.03;41.70;;;2.90;99.90;;;;;;4400489;32;20171;-66
2020/12/08 00:54:21;;;;;;;88.03;42.43;;;2.80;99.90;;;;;;4389768;32;20179;-66
2020/12/08 00:56:48;;;;;;;85.03;41.17;;;2.80;99.90;;;;;;4396914;32;20172;-66
2020/12/08 00:59:14;;;;;;;87.77;42.80;;;2.90;99.90;;;;;;4391007;32;20152;-66
2020/12/08 01:01:42;;;;;;;83.73;42.47;;;2.80;99.90;;;;;;4391231;32;20161;-66
2020/12/08 01:04:08;;;;;;;88.73;42.73;;;2.80;99.90;;;;;;4402164;32;20231;-66
2020/12/08 01:06:36;;;;;;;85.97;42.53;;;2.90;99.90;;;;;;4398281;32;20238;-66
2020/12/08 01:09:03;;;;;;;79.33;37.97;;;2.90;99.90;;;;;;4400709;32;20223;-65
2020/12/08 01:11:29;;;;;;;95.27;44.23;;;2.90;99.90;;;;;;4398343;32;20595;-66
2020/12/08 01:13:55;;;;;;;91.03;41.20;;;2.90;99.90;;;;;;4402897;32;20156;-66
2020/12/08 01:16:24;;;;;;;81.17;40.67;;;2.90;99.90;;;;;;4402643;32;20663;-67
2020/12/08 01:18:51;;;;;;;79.43;41.00;;;3.00;99.90;;;;;;4400185;32;20156;-66
2020/12/08 01:21:18;;;;;;;84.60;42.53;;;3.00;99.90;;;;;;4395483;32;20148;-66
2020/12/08 01:23:44;;;;;;;94.33;43.63;;;2.90;99.90;;;;;;4399740;32;20172;-66
2020/12/08 01:26:11;;;;;;;82.73;40.70;;;3.00;99.90;;;;;;4393119;32;20182;-65
2020/12/08 01:28:37;;;;;;;83.57;41.73;;;3.00;99.90;;;;;;4392449;32;20190;-66
2020/12/08 01:31:03;;;;;;;80.90;39.77;;;3.00;99.90;;;;;;4397845;32;20148;-66
2020/12/08 01:33:29;;;;;;;85.50;40.80;;;3.00;99.90;;;;;;4392838;32;20231;-66
2020/12/08 01:35:57;;;;;;;88.13;41.53;;;2.90;99.90;;;;;;4401593;32;20660;-66
2020/12/08 01:38:23;;;;;;;90.93;41.30;;;2.90;99.90;;;;;;4404516;32;20172;-66
2020/12/08 01:40:54;;;;;;;78.93;40.40;;;2.90;99.90;;;;;;4391902;32;20149;-66
2020/12/08 01:43:20;;;;;;;86.00;41.83;;;2.90;99.90;;;;;;4394815;32;20553;-66
2020/12/08 01:45:46;;;;;;;77.47;40.27;;;3.00;99.90;;;;;;4391674;32;20223;-66
2020/12/08 01:48:14;;;;;;;74.37;38.60;;;3.00;99.90;;;;;;4396684;32;20179;-66
2020/12/08 01:50:41;;;;;;;67.87;36.50;;;3.10;99.90;;;;;;4399653;32;20255;-65
2020/12/08 01:53:10;;;;;;;70.03;36.83;;;3.00;99.90;;;;;;4405101;32;20166;-66
2020/12/08 01:55:38;;;;;;;70.37;37.50;;;3.00;99.90;;;;;;4401076;32;20647;-66
2020/12/08 01:58:13;;;;;;;75.87;38.23;;;3.00;99.90;;;;;;4401590;32;20167;-66
2020/12/08 02:00:39;;;;;;;70.87;37.87;;;3.00;99.90;;;;;;4397165;32;20191;-66
2020/12/08 02:03:05;;;;;;;68.23;36.43;;;3.00;99.90;;;;;;4400651;32;20163;-67
2020/12/08 02:05:32;;;;;;;70.50;35.10;;;3.00;99.90;;;;;;4399340;32;20156;-65
2020/12/08 02:07:58;;;;;;;61.53;34.10;;;3.10;99.90;;;;;;4396564;32;20611;-64
2020/12/08 02:10:25;;;;;;;63.60;33.70;;;3.00;99.90;;;;;;4401001;32;20574;-64
2020/12/08 02:12:52;;;;;;;58.53;32.67;;;3.00;99.90;;;;;;4392906;32;20223;-65
2020/12/08 02:15:18;;;;;;;65.43;33.93;;;3.00;99.90;;;;;;4396354;32;20218;-64
2020/12/08 02:17:44;;;;;;;64.20;35.33;;;2.90;99.90;;;;;;4395328;32;20588;-64
2020/12/08 02:20:11;;;;;;;62.97;34.73;;;2.90;99.90;;;;;;4405879;32;20178;-65
2020/12/08 02:22:42;;;;;;;60.33;32.80;;;2.70;99.90;;;;;;4402711;32;20182;-66
2020/12/08 02:25:08;;;;;;;64.17;35.17;;;2.70;99.90;;;;;;4392101;32;20162;-66
2020/12/08 02:27:35;;;;;;;68.87;36.70;;;2.80;99.90;;;;;;4396374;32;20519;-65
2020/12/08 02:30:01;;;;;;;64.00;34.23;;;2.70;99.90;;;;;;4396246;32;20159;-65
2020/12/08 02:32:28;;;;;;;63.53;34.07;;;2.70;99.90;;;;;;4393655;32;20164;-66
2020/12/08 02:34:56;;;;;;;62.60;34.07;;;2.70;99.90;;;;;;4405077;32;20520;-65
2020/12/08 02:37:23;;;;;;;63.43;33.23;;;2.70;99.90;;;;;;4404830;32;20156;-65
2020/12/08 02:39:49;;;;;;;70.23;36.20;;;2.70;99.90;;;;;;4397995;32;20238;-65
2020/12/08 02:42:16;;;;;;;64.73;36.30;;;2.70;99.90;;;;;;4399596;32;20215;-64
2020/12/08 02:44:42;;;;;;;61.83;33.70;;;2.80;99.90;;;;;;4393353;32;20144;-66
2020/12/08 02:47:09;;;;;;;62.23;33.43;;;2.80;99.90;;;;;;4395011;32;20360;-65
2020/12/08 02:49:35;;;;;;;62.80;34.67;;;3.00;99.90;;;;;;4390939;32;20183;-67
2020/12/08 02:52:02;;;;;;;58.30;32.43;;;2.90;99.90;;;;;;4392293;32;20227;-64
2020/12/08 02:54:29;;;;;;;58.30;32.70;;;2.90;99.90;;;;;;4391205;32;20537;-65
2020/12/08 02:56:55;;;;;;;62.00;33.57;;;2.90;99.90;;;;;;4393177;32;20491;-66
2020/12/08 02:59:22;;;;;;;58.47;33.53;;;2.90;99.90;;;;;;4406092;32;20460;-66
2020/12/08 03:01:48;;;;;;;55.77;32.67;;;3.00;99.90;;;;;;4401926;32;20228;-65
2020/12/08 03:04:15;;;;;;;55.93;32.13;;;2.90;99.90;;;;;;4396386;32;20224;-64
2020/12/08 03:06:43;;;;;;;61.63;35.03;;;2.80;99.90;;;;;;4390432;32;20581;-65
2020/12/08 03:09:11;;;;;;;59.37;33.73;;;2.80;99.90;;;;;;4392371;32;20223;-64
2020/12/08 03:11:38;;;;;;;62.80;34.97;;;2.70;99.90;;;;;;4394177;32;20160;-65
2020/12/08 03:14:05;;;;;;;64.57;34.70;;;2.70;99.90;;;;;;4403273;32;20249;-64
2020/12/08 03:16:31;;;;;;;59.67;34.03;;;2.60;99.90;;;;;;4392840;32;20156;-65
2020/12/08 03:19:00;;;;;;;55.23;32.33;;;2.60;99.90;;;;;;4390101;32;20163;-65
2020/12/08 03:21:26;;;;;;;60.83;34.17;;;2.60;99.90;;;;;;4400073;32;20145;-65
2020/12/08 03:23:52;;;;;;;67.00;34.13;;;2.60;99.90;;;;;;4389580;32;20216;-66
2020/12/08 03:26:22;;;;;;;61.80;32.83;;;2.60;99.90;;;;;;4402946;32;20306;-65
2020/12/08 03:28:49;;;;;;;61.03;32.93;;;2.50;99.90;;;;;;4392579;32;20165;-66
2020/12/08 03:31:16;;;;;;;55.03;32.17;;;2.40;99.90;;;;;;4391446;32;20160;-65
2020/12/08 03:33:42;;;;;;;53.33;31.80;;;2.50;99.90;;;;;;4394339;32;20168;-65
2020/12/08 03:36:11;;;;;;;59.63;33.83;;;2.40;99.90;;;;;;4394946;32;20254;-65
2020/12/08 03:38:37;;;;;;;62.57;33.87;;;2.30;99.90;;;;;;4391147;32;20155;-66
2020/12/08 03:41:04;;;;;;;65.23;34.77;;;2.20;99.90;;;;;;4399624;32;20338;-65
2020/12/08 03:43:30;;;;;;;68.33;34.57;;;2.10;99.90;;;;;;4394205;32;20535;-66
2020/12/08 03:45:58;;;;;;;69.83;35.03;;;2.10;99.90;;;;;;4393290;32;20235;-66
2020/12/08 03:48:24;;;;;;;68.87;33.83;;;2.00;99.90;;;;;;4401202;32;20591;-65
2020/12/08 03:50:53;;;;;;;73.53;35.37;;;1.90;99.90;;;;;;4389923;32;20192;-65
2020/12/08 03:53:19;;;;;;;72.70;36.43;;;1.80;99.90;;;;;;4396265;32;20295;-65
2020/12/08 03:55:45;;;;;;;66.17;35.03;;;1.80;99.90;;;;;;4392786;32;20484;-65
2020/12/08 03:58:12;;;;;;;76.40;35.90;;;1.70;99.90;;;;;;4391902;32;20225;-65
2020/12/08 04:00:38;;;;;;;69.60;35.53;;;1.70;99.90;;;;;;4403871;32;20480;-66
2020/12/08 04:03:06;;;;;;;70.53;33.60;;;1.70;99.90;;;;;;4401692;32;20173;-65
2020/12/08 04:05:33;;;;;;;68.20;34.20;;;1.60;99.90;;;;;;4399206;32;20227;-65
2020/12/08 04:07:59;;;;;;;68.63;35.83;;;1.60;99.90;;;;;;4388954;32;20171;-65
2020/12/08 04:10:27;;;;;;;79.60;37.37;;;1.60;99.90;;;;;;4390582;32;20591;-65
2020/12/08 04:12:53;;;;;;;64.20;34.77;;;1.70;99.90;;;;;;4389676;32;20167;-65
2020/12/08 04:15:21;;;;;;;77.77;36.37;;;1.60;99.90;;;;;;4396074;32;20262;-65
2020/12/08 04:17:50;;;;;;;65.30;33.43;;;1.60;99.90;;;;;;4393256;32;20143;-64
2020/12/08 04:20:17;;;;;;;74.47;36.27;;;1.50;99.90;;;;;;4390322;32;20147;-64
2020/12/08 04:22:43;;;;;;;74.70;36.57;;;1.70;99.90;;;;;;4393944;32;20144;-65
2020/12/08 04:25:10;;;;;;;70.83;34.60;;;1.50;99.90;;;;;;4393912;32;20658;-64
2020/12/08 04:27:36;;;;;;;77.37;36.73;;;1.40;99.90;;;;;;4394001;32;20148;-65
2020/12/08 04:30:03;;;;;;;63.50;34.07;;;1.40;99.90;;;;;;4394044;32;20179;-64
2020/12/08 04:32:29;;;;;;;68.93;34.63;;;1.40;99.90;;;;;;4393201;32;20206;-65
2020/12/08 04:34:55;;;;;;;71.17;35.17;;;1.40;99.90;;;;;;4400348;32;20235;-65
2020/12/08 04:37:23;;;;;;;80.03;38.00;;;1.50;99.90;;;;;;4395708;32;20516;-64
2020/12/08 04:39:49;;;;;;;75.90;37.17;;;1.50;99.90;;;;;;4396240;32;20243;-65
2020/12/08 04:42:15;;;;;;;71.90;37.47;;;1.50;99.90;;;;;;4397080;32;20182;-64
2020/12/08 04:44:44;;;;;;;78.20;37.67;;;1.50;99.90;;;;;;4393233;32;20160;-65
2020/12/08 04:47:20;;;;;;;78.13;38.00;;;1.50;99.90;;;;;;4391946;32;20181;-65
2020/12/08 04:49:47;;;;;;;75.57;37.77;;;1.50;99.90;;;;;;4397337;32;20491;-64
2020/12/08 04:52:18;;;;;;;71.53;34.83;;;1.60;99.90;;;;;;4397920;32;20214;-65
2020/12/08 04:54:45;;;;;;;75.50;37.03;;;1.60;99.90;;;;;;4394400;32;20247;-65
2020/12/08 04:57:11;;;;;;;79.57;36.13;;;1.70;99.90;;;;;;4400214;32;20234;-65
2020/12/08 04:59:39;;;;;;;71.67;35.33;;;1.70;99.90;;;;;;4400914;32;20172;-64
2020/12/08 05:02:05;;;;;;;65.07;33.53;;;1.70;99.90;;;;;;4396809;32;20164;-64
2020/12/08 05:04:32;;;;;;;72.97;36.10;;;1.60;99.90;;;;;;4393916;32;20145;-65
2020/12/08 05:07:04;;;;;;;71.37;35.90;;;1.60;99.90;;;;;;4398453;32;20296;-65
2020/12/08 05:09:31;;;;;;;69.73;35.27;;;1.60;99.90;;;;;;4401965;32;20172;-65
2020/12/08 05:11:59;;;;;;;77.90;37.23;;;1.50;99.90;;;;;;4394692;32;20160;-66
2020/12/08 05:14:26;;;;;;;81.70;37.77;;;1.50;99.90;;;;;;4397397;32;20231;-65
2020/12/08 05:17:03;;;;;;;77.87;37.30;;;1.50;99.90;;;;;;4396611;32;20602;-65
2020/12/08 05:19:29;;;;;;;63.73;34.47;;;1.40;99.90;;;;;;4393964;32;20219;-65
2020/12/08 05:21:59;;;;;;;74.17;35.90;;;1.40;99.90;;;;;;4397646;32;20179;-65
2020/12/08 05:24:28;;;;;;;81.57;38.37;;;1.40;99.90;;;;;;4400770;32;20223;-65
2020/12/08 05:26:55;;;;;;;73.60;36.43;;;1.30;99.90;;;;;;4396972;32;20203;-65
2020/12/08 05:29:23;;;;;;;72.60;36.10;;;1.30;99.90;;;;;;4397586;32;20171;-65
2020/12/08 05:31:50;;;;;;;72.20;36.07;;;1.30;99.90;;;;;;4396938;32;20401;-65
2020/12/08 05:34:19;;;;;;;75.57;36.43;;;1.30;99.90;;;;;;4393575;32;20166;-66
2020/12/08 05:36:48;;;;;;;70.57;37.60;;;1.30;99.90;;;;;;4392843;32;20218;-65
2020/12/08 05:39:18;;;;;;;76.77;36.33;;;1.30;99.90;;;;;;4397643;32;20290;-65
2020/12/08 05:41:45;;;;;;;78.73;37.40;;;1.20;99.90;;;;;;4393987;32;20159;-65
2020/12/08 05:44:16;;;;;;;81.10;39.90;;;1.20;99.90;;;;;;4395151;32;20164;-65
2020/12/08 05:46:47;;;;;;;69.43;34.93;;;1.20;99.90;;;;;;4399486;32;20151;-65
2020/12/08 05:49:16;;;;;;;74.83;36.43;;;1.10;99.90;;;;;;4394894;32;20242;-65
2020/12/08 05:51:44;;;;;;;80.97;37.03;;;1.20;99.90;;;;;;4400793;32;20184;-65
2020/12/08 05:54:17;;;;;;;67.00;34.43;;;1.10;99.90;;;;;;4399450;32;20170;-65
2020/12/08 05:56:43;;;;;;;72.00;34.87;;;1.10;99.90;;;;;;4398683;32;20544;-65
2020/12/08 05:59:23;;;;;;;75.20;36.13;;;1.00;99.90;;;;;;4400777;32;20604;-65
2020/12/08 06:01:51;;;;;;;73.37;36.53;;;1.00;99.90;;;;;;4401475;32;20233;-65
2020/12/08 06:04:19;;;;;;;69.07;35.07;;;1.00;99.90;;;;;;4394916;32;20197;-66
2020/12/08 06:06:57;;;;;;;75.60;36.53;;;0.90;99.90;;;;;;4393232;32;20159;-65
2020/12/08 06:09:26;;;;;;;72.87;37.93;;;0.90;99.90;;;;;;4401165;32;20519;-65
2020/12/08 06:11:52;;;;;;;76.17;36.33;;;0.90;99.90;;;;;;4400952;32;20164;-65
2020/12/08 06:14:36;;;;;;;84.63;41.50;;;0.80;99.90;;;;;;4397673;32;20192;-65
2020/12/08 06:17:06;;;;;;;85.50;39.63;;;0.80;99.90;;;;;;4398103;32;20143;-64
2020/12/08 06:19:36;;;;;;;75.40;37.30;;;0.80;99.90;;;;;;4395796;32;20141;-65
2020/12/08 06:22:12;;;;;;;89.40;40.23;;;0.70;99.90;;;;;;4398563;32;20170;-65
2020/12/08 06:24:49;;;;;;;78.37;36.97;;;0.70;99.90;;;;;;4393772;32;20232;-65
2020/12/08 06:27:21;;;;;;;88.27;40.53;;;0.70;99.90;;;;;;4394414;32;20214;-65
2020/12/08 06:29:51;;;;;;;89.43;41.63;;;0.80;99.90;;;;;;4396375;32;20159;-66
2020/12/08 06:32:31;;;;;;;77.90;39.07;;;0.80;99.90;;;;;;4396168;32;20580;-66
2020/12/08 06:35:06;;;;;;;74.23;37.20;;;0.80;99.90;;;;;;4394787;32;20148;-65
2020/12/08 06:37:33;;;;;;;83.43;40.93;;;0.80;99.90;;;;;;4395087;32;20679;-65
2020/12/08 06:40:07;;;;;;;90.33;41.10;;;0.90;99.90;;;;;;4391449;32;20267;-64
2020/12/08 06:42:35;;;;;;;85.57;37.63;;;0.90;99.90;;;;;;4390930;32;20163;-64
2020/12/08 06:45:15;;;;;;;90.77;40.47;;;0.90;99.90;;;;;;4395809;32;20226;-65
2020/12/08 06:47:48;;;;;;;79.30;40.07;;;0.80;99.90;;;;;;4397051;32;20184;-64
2020/12/08 06:50:23;;;;;;;96.43;40.83;;;0.80;99.90;;;;;;4402676;32;20156;-64
2020/12/08 06:52:54;;;;;;;74.47;38.63;;;0.90;99.90;;;;;;4394432;32;20595;-65
2020/12/08 06:55:21;;;;;;;88.50;40.13;;;0.90;99.90;;;;;;4394555;32;20313;-65
2020/12/08 06:57:51;;;;;;;84.27;40.17;;;0.80;99.90;;;;;;4395915;32;20167;-65
2020/12/08 07:00:17;;;;;;;89.27;39.70;;;0.90;99.90;;;;;;4395303;32;20232;-65
2020/12/08 07:02:50;;;;;;;76.80;37.37;;;0.90;99.90;;;;;;4397420;32;20518;-64
2020/12/08 07:05:27;;;;;;;79.63;38.50;;;0.90;99.90;;;;;;4393910;32;20157;-65
2020/12/08 07:08:03;;;;;;;81.63;38.30;;;1.10;99.90;;;;;;4394766;32;20566;-64
2020/12/08 07:10:55;;;;;;;89.73;39.73;;;1.20;99.90;;;;;;4396804;32;20209;-64
2020/12/08 07:13:25;;;;;;;81.13;37.10;;;1.20;99.90;;;;;;4392361;32;20267;-65
2020/12/08 07:15:57;;;;;;;84.00;39.07;;;1.20;99.90;;;;;;4399048;32;20152;-64
2020/12/08 07:18:30;;;;;;;87.43;37.37;;;1.30;99.90;;;;;;4405344;32;20214;-64
2020/12/08 07:20:59;;;;;;;71.93;35.47;;;1.40;99.90;;;;;;4403068;32;20165;-64
2020/12/08 07:23:27;;;;;;;76.43;39.07;;;1.50;99.90;;;;;;4404942;32;20155;-64
2020/12/08 07:25:58;;;;;;;75.83;38.63;;;1.50;99.90;;;;;;4391795;32;20535;-64
2020/12/08 07:28:30;;;;;;;81.87;37.90;;;1.60;99.90;;;;;;4400667;32;20592;-63
2020/12/08 07:30:56;;;;;;;69.67;35.27;;;1.60;99.90;;;;;;4398313;32;20538;-63
2020/12/08 07:33:33;;;;;;;77.37;37.70;;;1.60;99.90;;;;;;4400914;32;20148;-64
2020/12/08 07:36:02;;;;;;;86.90;40.10;;;1.70;99.90;;;;;;4390263;32;20359;-63
2020/12/08 07:38:41;;;;;;;67.43;36.30;;;1.60;99.90;;;;;;4398175;32;20147;-64
2020/12/08 07:41:17;;;;;;;78.47;38.33;;;1.70;99.90;;;;;;4405282;32;20158;-63
2020/12/08 07:43:45;;;;;;;67.13;35.27;;;1.70;99.90;;;;;;4405124;32;20226;-64
2020/12/08 07:46:14;;;;;;;65.77;37.30;;;1.80;99.90;;;;;;4395463;32;20266;-62
2020/12/08 07:48:45;;;;;;;68.70;36.30;;;1.80;99.90;;;;;;4404543;32;20379;-63
2020/12/08 07:51:12;;;;;;;75.40;37.37;;;1.80;99.90;;;;;;4402166;32;20163;-65
2020/12/08 07:53:41;;;;;;;67.80;37.00;;;1.90;99.90;;;;;;4397287;32;20190;-65
2020/12/08 07:56:07;;;;;;;59.60;32.10;;;1.90;99.90;;;;;;4391517;32;20160;-65
2020/12/08 07:58:39;;;;;;;63.07;34.30;;;1.90;99.90;;;;;;4390720;32;20168;-64
2020/12/08 08:01:11;;;;;;;66.13;34.50;;;2.10;99.90;;;;;;4397245;32;20223;-64
2020/12/08 08:03:37;;;;;;;57.03;32.60;;;2.00;99.90;;;;;;4395117;32;20164;-64
2020/12/08 08:06:09;;;;;;;66.43;34.53;;;2.00;99.90;;;;;;4394554;32;20230;-63
2020/12/08 08:08:38;;;;;;;74.80;36.33;;;2.10;99.90;;;;;;4394099;32;20144;-64
2020/12/08 08:11:04;;;;;;;60.03;32.43;;;2.10;99.90;;;;;;4398194;32;20538;-63
2020/12/08 08:13:30;;;;;;;48.53;29.73;;;2.10;99.90;;;;;;4391196;32;20470;-64
2020/12/08 08:16:00;;;;;;;55.87;32.87;;;2.10;99.90;;;;;;4391601;32;20175;-65
2020/12/08 08:18:26;;;;;;;55.53;31.97;;;2.10;99.90;;;;;;4391650;32;20150;-63
2020/12/08 08:20:53;;;;;;;48.00;30.20;;;2.10;99.90;;;;;;4403259;32;20155;-63
2020/12/08 08:23:21;;;;;;;58.80;31.77;;;2.10;99.90;;;;;;4393403;32;20198;-63
2020/12/08 08:25:47;;;;;;;54.10;30.90;;;2.20;99.90;;;;;;4396876;32;20168;-64
2020/12/08 08:28:16;;;;;;;51.73;29.33;;;2.20;99.90;;;;;;4402534;32;20491;-63
2020/12/08 08:30:43;;;;;;;52.87;31.03;;;2.20;99.90;;;;;;4395920;32;20152;-63
2020/12/08 08:33:09;;;;;;;52.37;31.00;;;2.20;99.90;;;;;;4393642;32;20468;-64
2020/12/08 08:35:37;;;;;;;57.67;31.30;;;2.20;99.90;;;;;;4396030;32;20156;-64
2020/12/08 08:38:03;;;;;;;56.27;30.07;;;2.20;99.90;;;;;;4392251;32;20167;-63
2020/12/08 08:40:35;;;;;;;54.33;31.60;;;2.20;99.90;;;;;;4397177;32;20224;-63
2020/12/08 08:43:03;;;;;;;52.67;31.13;;;2.20;99.90;;;;;;4389584;32;20144;-64
2020/12/08 08:45:33;;;;;;;53.63;30.63;;;2.10;99.90;;;;;;4391504;32;20170;-64
2020/12/08 08:48:04;;;;;;;51.73;29.13;;;2.10;99.90;;;;;;4400378;32;20497;-64
2020/12/08 08:50:31;;;;;;;49.77;29.17;;;2.10;99.90;;;;;;4402015;32;20228;-64
2020/12/08 08:52:58;;;;;;;50.43;29.63;;;2.10;99.90;;;;;;4389494;32;20163;-64
2020/12/08 08:55:24;;;;;;;47.40;31.13;;;2.20;99.90;;;;;;4395261;32;20167;-65
2020/12/08 08:57:51;;;;;;;51.90;31.43;;;2.30;99.90;;;;;;4389473;32;20587;-65
2020/12/08 09:00:17;;;;;;;57.40;32.43;;;2.40;99.90;;;;;;4399587;32;20195;-64
2020/12/08 09:02:47;;;;;;;57.60;30.80;;;2.50;99.90;;;;;;4389953;32;20253;-63
2020/12/08 09:05:15;;;;;;;50.30;30.60;;;2.40;99.90;;;;;;4399346;32;20624;-64
2020/12/08 09:07:44;;;;;;;50.10;31.27;;;2.50;99.90;;;;;;4403771;32;20162;-63
2020/12/08 09:10:15;;;;;;;49.40;30.53;;;2.60;99.90;;;;;;4390308;32;20210;-63
2020/12/08 09:12:42;;;;;;;45.10;29.40;;;2.70;99.90;;;;;;4388966;32;20220;-64
2020/12/08 09:15:11;;;;;;;43.97;28.77;;;2.70;99.90;;;;;;4396870;32;20148;-63
2020/12/08 09:17:38;;;;;;;45.47;28.03;;;2.70;99.90;;;;;;4391014;32;20152;-63
2020/12/08 09:20:04;;;;;;;43.17;27.50;;;2.70;99.90;;;;;;4388648;32;20627;-64
2020/12/08 09:22:34;;;;;;;47.27;27.97;;;2.60;99.90;;;;;;4403324;32;20478;-64
2020/12/08 09:25:03;;;;;;;44.43;28.07;;;2.60;99.90;;;;;;4398437;32;20290;-65
2020/12/08 09:27:29;;;;;;;44.60;29.20;;;2.70;99.90;;;;;;4394878;32;20155;-64
2020/12/08 09:29:56;;;;;;;46.00;28.53;;;2.70;99.90;;;;;;4400462;32;20164;-64
2020/12/08 09:32:23;;;;;;;42.70;27.03;;;2.70;99.90;;;;;;4402778;32;20483;-64
2020/12/08 09:34:49;;;;;;;45.20;29.87;;;2.70;99.90;;;;;;4404337;32;20174;-64
2020/12/08 09:37:16;;;;;;;44.33;28.43;;;2.70;99.90;;;;;;4397240;32;20155;-65
2020/12/08 09:39:42;;;;;;;43.43;29.00;;;2.60;99.90;;;;;;4391775;32;20592;-65
2020/12/08 09:42:08;;;;;;;39.57;28.53;;;2.80;99.90;;;;;;4394634;32;20152;-65
2020/12/08 09:44:35;;;;;;;48.53;29.50;;;2.80;99.90;;;;;;4394082;32;20144;-65
2020/12/08 09:47:04;;;;;;;42.77;28.50;;;2.80;99.90;;;;;;4394846;32;20152;-64
2020/12/08 09:49:32;;;;;;;48.03;29.83;;;2.80;99.90;;;;;;4392688;32;20512;-64
2020/12/08 09:51:59;;;;;;;43.63;27.60;;;3.10;99.90;;;;;;4402494;32;20159;-65
2020/12/08 09:54:36;;;;;;;42.57;27.87;;;3.10;99.90;;;;;;4400801;32;20597;-64
2020/12/08 09:57:13;;;;;;;43.37;28.73;;;3.20;99.90;;;;;;4401421;32;20164;-64
2020/12/08 09:59:41;;;;;;;44.57;28.77;;;3.40;99.90;;;;;;4399393;32;20164;-65
2020/12/08 10:02:07;;;;;;;41.23;28.73;;;3.30;99.90;;;;;;4393124;32;20171;-64
2020/12/08 10:04:37;;;;;;;36.60;26.13;;;3.40;99.90;;;;;;4397993;32;20147;-65
2020/12/08 10:07:03;;;;;;;37.10;26.40;;;3.50;99.90;;;;;;4406274;32;20237;-65
2020/12/08 10:09:29;;;;;;;40.23;27.93;;;3.50;99.90;;;;;;4394120;32;20152;-64
2020/12/08 10:11:56;;;;;;;40.23;29.27;;;3.60;99.90;;;;;;4402380;32;20178;-63
2020/12/08 10:14:22;;;;;;;40.37;26.63;;;3.50;99.90;;;;;;4396603;32;20164;-64
2020/12/08 10:16:51;;;;;;;45.70;28.53;;;3.60;99.90;;;;;;4393647;32;20191;-64
2020/12/08 10:19:18;;;;;;;39.50;26.80;;;3.60;99.90;;;;;;4394582;32;20165;-65
2020/12/08 10:21:45;;;;;;;41.73;27.80;;;3.60;99.90;;;;;;4396692;32;20167;-64
2020/12/08 10:24:11;;;;;;;36.80;25.57;;;3.70;99.90;;;;;;4404368;32;20182;-64
2020/12/08 10:26:37;;;;;;;45.87;28.47;;;3.70;99.90;;;;;;4391050;32;20502;-64
2020/12/08 10:29:04;;;;;;;41.93;29.23;;;3.70;99.90;;;;;;4391172;32;20177;-65
2020/12/08 10:31:31;;;;;;;39.20;26.53;;;3.70;99.90;;;;;;4394183;32;20607;-65
2020/12/08 10:33:57;;;;;;;40.47;27.63;;;3.80;99.90;;;;;;4391156;32;20191;-64
2020/12/08 10:36:24;;;;;;;40.50;26.53;;;3.80;99.90;;;;;;4392839;32;20165;-64
2020/12/08 10:38:51;;;;;;;39.70;28.07;;;3.80;99.90;;;;;;4406403;32;20182;-64
2020/12/08 10:41:20;;;;;;;39.90;27.20;;;3.70;99.90;;;;;;4401752;32;20172;-65
2020/12/08 10:43:49;;;;;;;45.70;27.73;;;3.80;99.90;;;;;;4407787;32;20144;-65
2020/12/08 10:46:17;;;;;;;37.53;26.07;;;3.80;99.90;;;;;;4396524;32;20153;-65
2020/12/08 10:48:46;;;;;;;38.80;26.93;;;3.90;99.90;;;;;;4390614;32;20174;-64
2020/12/08 10:51:12;;;;;;;39.57;26.23;;;4.10;99.90;;;;;;4395878;32;20155;-65
2020/12/08 10:53:39;;;;;;;38.80;27.17;;;4.00;99.90;;;;;;4391060;32;20184;-65
2020/12/08 10:56:06;;;;;;;41.57;26.73;;;4.00;99.90;;;;;;4392970;32;20166;-65
2020/12/08 10:58:33;;;;;;;44.83;28.77;;;4.10;99.90;;;;;;4395771;32;20205;-66
2020/12/08 11:00:59;;;;;;;41.47;28.50;;;4.10;99.90;;;;;;4396999;32;20201;-65
2020/12/08 11:03:25;;;;;;;35.50;25.80;;;4.20;99.90;;;;;;4397604;32;20159;-66
2020/12/08 11:05:58;;;;;;;37.43;26.67;;;4.40;99.90;;;;;;4403336;32;20175;-66
2020/12/08 11:08:27;;;;;;;38.70;25.60;;;4.50;99.90;;;;;;4398139;32;20556;-65
2020/12/08 11:10:56;;;;;;;36.77;24.93;;;4.50;99.90;;;;;;4401482;32;20179;-66
2020/12/08 11:13:23;;;;;;;38.87;26.27;;;4.50;99.90;;;;;;4402418;32;20163;-64
2020/12/08 11:15:59;;;;;;;38.90;26.27;;;4.60;99.90;;;;;;4396929;32;20261;-65
2020/12/08 11:18:26;;;;;;;39.17;26.80;;;4.60;99.90;;;;;;4401468;32;20167;-64
2020/12/08 11:20:53;;;;;;;41.87;27.13;;;4.70;99.90;;;;;;4398628;32;20168;-64
2020/12/08 11:23:19;;;;;;;39.80;26.77;;;4.50;99.90;;;;;;4404746;32;20166;-65
2020/12/08 11:25:45;;;;;;;40.90;26.53;;;4.50;99.90;;;;;;4393572;32;20159;-65
2020/12/08 11:28:11;;;;;;;37.87;25.70;;;4.60;99.90;;;;;;4390908;32;20163;-65
2020/12/08 11:30:39;;;;;;;37.97;25.83;;;4.60;99.90;;;;;;4400282;32;20157;-65
2020/12/08 11:33:20;;;;;;;39.20;26.53;;;4.60;99.90;;;;;;4400134;32;20234;-65
2020/12/08 11:35:47;;;;;;;38.53;25.67;;;4.60;99.90;;;;;;4400493;32;20254;-65
2020/12/08 11:38:13;;;;;;;34.77;24.97;;;4.60;99.90;;;;;;4402187;32;20168;-65
2020/12/08 11:40:41;;;;;;;37.50;26.13;;;4.70;99.90;;;;;;4394911;32;20155;-64
2020/12/08 11:43:07;;;;;;;34.23;25.03;;;4.80;99.90;;;;;;4398741;32;20446;-65
2020/12/08 11:45:33;;;;;;;35.53;25.47;;;4.90;99.90;;;;;;4393484;32;20214;-66
2020/12/08 11:48:00;;;;;;;38.13;27.30;;;4.80;99.90;;;;;;4392450;32;20205;-65
2020/12/08 11:50:29;;;;;;;39.40;25.93;;;4.80;99.90;;;;;;4398089;32;20143;-64
2020/12/08 11:52:55;;;;;;;35.60;25.97;;;4.80;99.90;;;;;;4390085;32;20155;-64
2020/12/08 11:55:22;;;;;;;35.43;24.40;;;4.70;99.90;;;;;;4396833;32;20174;-64
2020/12/08 11:57:48;;;;;;;35.43;24.70;;;4.80;99.90;;;;;;4400617;32;20167;-66
2020/12/08 12:00:15;;;;;;;36.07;25.53;;;4.80;99.90;;;;;;4399830;32;20203;-65
2020/12/08 12:02:41;;;;;;;36.27;25.10;;;4.90;99.90;;;;;;4401007;32;20213;-66
2020/12/08 12:05:08;;;;;;;36.57;25.40;;;5.00;99.90;;;;;;4390966;32;20227;-65
2020/12/08 12:07:35;;;;;;;34.13;24.30;;;5.10;99.90;;;;;;4393889;32;20152;-66
2020/12/08 12:10:01;;;;;;;34.47;23.90;;;5.10;99.90;;;;;;4396775;32;20183;-66
2020/12/08 12:12:29;;;;;;;33.50;24.77;;;5.20;99.90;;;;;;4397488;32;20151;-66
2020/12/08 12:14:56;;;;;;;35.57;23.60;;;5.20;99.90;;;;;;4391119;32;20152;-66
2020/12/08 12:17:22;;;;;;;31.97;23.87;;;5.10;99.90;;;;;;4392362;32;20160;-66
2020/12/08 12:19:48;;;;;;;33.70;24.23;;;5.20;99.90;;;;;;4397753;32;20222;-65
2020/12/08 12:22:19;;;;;;;36.10;24.73;;;5.20;99.90;;;;;;4393301;32;20584;-64
2020/12/08 12:24:47;;;;;;;37.57;24.93;;;5.20;99.90;;;;;;4397613;32;20183;-64
2020/12/08 12:27:21;;;;;;;34.80;24.00;;;5.10;99.90;;;;;;4396387;32;20172;-64
2020/12/08 12:29:47;;;;;;;35.97;22.70;;;5.10;99.90;;;;;;4391075;32;20140;-63
2020/12/08 12:32:15;;;;;;;35.37;23.93;;;5.20;99.90;;;;;;4393026;32;20156;-64
2020/12/08 12:34:42;;;;;;;34.23;23.30;;;5.10;99.90;;;;;;4393766;32;20222;-64
2020/12/08 12:37:08;;;;;;;33.47;23.97;;;5.20;99.90;;;;;;4395742;32;20498;-64
2020/12/08 12:39:35;;;;;;;33.90;24.93;;;5.20;99.90;;;;;;4395351;32;20227;-65